sensor_id;sensor_type;location;lat;lon;timestamp;pressure;altitude;pressure_sealevel;temperature;humidity
78485;BME280;67773;50.806;8.776;2024-03-02T00:02:07;98534.72;;;4.09;100.00
78485;BME280;67773;50.806;8.776;2024-03-02T00:04:33;98524.69;;;3.98;100.00
78485;BME280;67773;50.806;8.776;2024-03-02T00:06:58;98524.03;;;3.93;100.00
78485;BME280;67773;50.806;8.776;2024-03-02T00:09:24;98521.41;;;3.93;100.00
78485;BME280;67773;50.806;8.776;2024-03-02T00:11:50;98518.44;;;3.80;100.00
78485;BME280;67773;50.806;8.776;2024-03-02T00:14:16;98518.38;;;3.82;100.00
78485;BME280;67773;50.806;8.776;2024-03-02T00:16:42;98516.88;;;3.76;100.00
78485;BME280;67773;50.806;8.776;2024-03-02T00:19:08;98519.69;;;3.71;100.00
78485;BME280;67773;50.806;8.776;2024-03-02T00:21:34;98521.81;;;3.62;100.00
78485;BME280;67773;50.806;8.776;2024-03-02T00:24:01;98525.44;;;3.59;100.00
78485;BME280;67773;50.806;8.776;2024-03-02T00:26:31;98525.44;;;3.59;100.00
78485;BME280;67773;50.806;8.776;2024-03-02T00:28:57;98522.50;;;3.67;100.00
78485;BME280;67773;50.806;8.776;2024-03-02T00:31:22;98514.94;;;3.59;100.00
78485;BME280;67773;50.806;8.776;2024-03-02T00:33:48;98529.41;;;3.47;100.00
78485;BME280;67773;50.806;8.776;2024-03-02T00:36:24;98513.00;;;3.42;100.00
78485;BME280;67773;50.806;8.776;2024-03-02T00:38:51;98516.31;;;3.47;100.00
78485;BME280;67773;50.806;8.776;2024-03-02T00:44:01;98511.22;;;3.43;100.00
78485;BME280;67773;50.806;8.776;2024-03-02T00:46:33;98510.38;;;3.42;100.00
78485;BME280;67773;50.806;8.776;2024-03-02T00:49:00;98507.03;;;3.39;100.00
78485;BME280;67773;50.806;8.776;2024-03-02T00:51:29;98507.81;;;3.41;100.00
78485;BME280;67773;50.806;8.776;2024-03-02T00:53:57;98502.41;;;3.45;100.00
78485;BME280;67773;50.806;8.776;2024-03-02T00:56:24;98495.84;;;3.56;100.00
78485;BME280;67773;50.806;8.776;2024-03-02T00:58:50;98497.75;;;3.52;100.00
78485;BME280;67773;50.806;8.776;2024-03-02T01:01:16;98496.03;;;3.51;100.00
78485;BME280;67773;50.806;8.776;2024-03-02T01:03:42;98511.34;;;3.40;100.00
78485;BME280;67773;50.806;8.776;2024-03-02T01:06:08;98502.09;;;3.31;100.00
78485;BME280;67773;50.806;8.776;2024-03-02T01:08:35;98503.38;;;3.21;100.00
78485;BME280;67773;50.806;8.776;2024-03-02T01:11:01;98488.63;;;3.18;100.00
78485;BME280;67773;50.806;8.776;2024-03-02T01:13:27;98489.41;;;3.21;100.00
78485;BME280;67773;50.806;8.776;2024-03-02T01:15:52;98490.59;;;3.13;100.00
78485;BME280;67773;50.806;8.776;2024-03-02T01:18:18;98474.78;;;3.15;100.00
78485;BME280;67773;50.806;8.776;2024-03-02T01:20:44;98477.97;;;3.23;100.00
78485;BME280;67773;50.806;8.776;2024-03-02T01:23:09;98474.66;;;3.18;100.00
78485;BME280;67773;50.806;8.776;2024-03-02T01:25:35;98470.50;;;3.12;100.00
78485;BME280;67773;50.806;8.776;2024-03-02T01:28:01;98476.06;;;3.05;100.00
78485;BME280;67773;50.806;8.776;2024-03-02T01:30:26;98482.34;;;3.01;100.00
78485;BME280;67773;50.806;8.776;2024-03-02T01:32:51;98477.72;;;3.07;100.00
78485;BME280;67773;50.806;8.776;2024-03-02T01:35:16;98471.19;;;2.96;100.00
78485;BME280;67773;50.806;8.776;2024-03-02T01:37:42;98487.06;;;2.93;100.00
78485;BME280;67773;50.806;8.776;2024-03-02T01:40:07;98491.66;;;2.86;100.00
78485;BME280;67773;50.806;8.776;2024-03-02T01:42:36;98497.56;;;2.91;100.00
78485;BME280;67773;50.806;8.776;2024-03-02T01:45:04;98492.88;;;2.99;100.00
78485;BME280;67773;50.806;8.776;2024-03-02T01:47:29;98485.66;;;3.06;100.00
78485;BME280;67773;50.806;8.776;2024-03-02T01:49:55;98496.78;;;2.89;100.00
78485;BME280;67773;50.806;8.776;2024-03-02T01:52:20;98501.34;;;2.84;100.00
78485;BME280;67773;50.806;8.776;2024-03-02T01:54:45;98497.75;;;2.86;100.00
78485;BME280;67773;50.806;8.776;2024-03-02T01:57:11;98496.97;;;2.84;100.00
78485;BME280;67773;50.806;8.776;2024-03-02T01:59:36;98493.59;;;2.81;100.00
78485;BME280;67773;50.806;8.776;2024-03-02T02:02:01;98498.97;;;2.78;100.00
78485;BME280;67773;50.806;8.776;2024-03-02T02:04:27;98489.22;;;2.81;100.00
78485;BME280;67773;50.806;8.776;2024-03-02T02:06:53;98488.34;;;2.81;100.00
78485;BME280;67773;50.806;8.776;2024-03-02T02:09:19;98480.81;;;2.73;100.00
78485;BME280;67773;50.806;8.776;2024-03-02T02:11:44;98470.94;;;2.80;100.00
78485;BME280;67773;50.806;8.776;2024-03-02T02:14:10;98454.84;;;2.67;100.00
78485;BME280;67773;50.806;8.776;2024-03-02T02:16:36;98471.91;;;2.77;100.00
78485;BME280;67773;50.806;8.776;2024-03-02T02:19:02;98465.94;;;2.74;100.00
78485;BME280;67773;50.806;8.776;2024-03-02T02:21:27;98459.66;;;2.78;100.00
78485;BME280;67773;50.806;8.776;2024-03-02T02:23:52;98466.53;;;2.80;100.00
78485;BME280;67773;50.806;8.776;2024-03-02T02:26:18;98453.50;;;2.79;100.00
78485;BME280;67773;50.806;8.776;2024-03-02T02:28:43;98453.56;;;2.77;100.00
78485;BME280;67773;50.806;8.776;2024-03-02T02:31:12;98442.84;;;2.62;100.00
78485;BME280;67773;50.806;8.776;2024-03-02T02:33:42;98445.47;;;2.62;100.00
78485;BME280;67773;50.806;8.776;2024-03-02T02:36:08;98437.03;;;2.53;100.00
78485;BME280;67773;50.806;8.776;2024-03-02T02:38:38;98438.97;;;2.48;100.00
78485;BME280;67773;50.806;8.776;2024-03-02T02:41:04;98434.69;;;2.46;100.00
78485;BME280;67773;50.806;8.776;2024-03-02T02:43:29;98431.94;;;2.50;100.00
78485;BME280;67773;50.806;8.776;2024-03-02T02:45:55;98423.16;;;2.51;100.00
78485;BME280;67773;50.806;8.776;2024-03-02T02:48:20;98424.53;;;2.60;100.00
78485;BME280;67773;50.806;8.776;2024-03-02T02:50:45;98429.25;;;2.52;100.00
78485;BME280;67773;50.806;8.776;2024-03-02T02:53:11;98420.53;;;2.51;100.00
78485;BME280;67773;50.806;8.776;2024-03-02T02:55:36;98418.84;;;2.50;100.00
78485;BME280;67773;50.806;8.776;2024-03-02T02:58:08;98422.41;;;2.48;100.00
78485;BME280;67773;50.806;8.776;2024-03-02T03:00:33;98418.19;;;2.44;100.00
78485;BME280;67773;50.806;8.776;2024-03-02T03:02:58;98425.34;;;2.40;100.00
78485;BME280;67773;50.806;8.776;2024-03-02T03:05:24;98417.00;;;2.29;100.00
78485;BME280;67773;50.806;8.776;2024-03-02T03:07:49;98423.50;;;2.19;100.00
78485;BME280;67773;50.806;8.776;2024-03-02T03:10:15;98420.78;;;2.22;100.00
78485;BME280;67773;50.806;8.776;2024-03-02T03:12:41;98413.25;;;2.13;100.00
78485;BME280;67773;50.806;8.776;2024-03-02T03:15:08;98419.28;;;2.15;100.00
78485;BME280;67773;50.806;8.776;2024-03-02T03:17:34;98427.94;;;2.17;100.00
78485;BME280;67773;50.806;8.776;2024-03-02T03:20:00;98425.56;;;2.11;100.00
78485;BME280;67773;50.806;8.776;2024-03-02T03:22:26;98421.34;;;2.07;100.00
78485;BME280;67773;50.806;8.776;2024-03-02T03:24:52;98419.56;;;2.07;100.00
78485;BME280;67773;50.806;8.776;2024-03-02T03:27:17;98417.97;;;2.03;100.00
78485;BME280;67773;50.806;8.776;2024-03-02T03:29:43;98422.38;;;2.02;100.00
78485;BME280;67773;50.806;8.776;2024-03-02T03:32:08;98415.38;;;2.03;100.00
78485;BME280;67773;50.806;8.776;2024-03-02T03:34:34;98417.47;;;1.93;100.00
78485;BME280;67773;50.806;8.776;2024-03-02T03:36:59;98411.31;;;1.94;100.00
78485;BME280;67773;50.806;8.776;2024-03-02T03:39:25;98413.72;;;2.00;100.00
78485;BME280;67773;50.806;8.776;2024-03-02T03:41:50;98415.16;;;2.09;100.00
78485;BME280;67773;50.806;8.776;2024-03-02T03:44:16;98413.38;;;2.10;100.00
78485;BME280;67773;50.806;8.776;2024-03-02T03:46:41;98422.59;;;2.20;100.00
78485;BME280;67773;50.806;8.776;2024-03-02T03:49:07;98414.69;;;2.21;100.00
78485;BME280;67773;50.806;8.776;2024-03-02T03:51:33;98419.81;;;2.01;100.00
78485;BME280;67773;50.806;8.776;2024-03-02T03:53:58;98414.97;;;1.90;100.00
78485;BME280;67773;50.806;8.776;2024-03-02T03:56:24;98414.91;;;1.92;100.00
78485;BME280;67773;50.806;8.776;2024-03-02T03:58:50;98421.66;;;1.97;100.00
78485;BME280;67773;50.806;8.776;2024-03-02T04:01:15;98417.66;;;1.87;100.00
78485;BME280;67773;50.806;8.776;2024-03-02T04:03:40;98425.44;;;1.90;100.00
78485;BME280;67773;50.806;8.776;2024-03-02T04:06:06;98418.19;;;1.97;100.00
78485;BME280;67773;50.806;8.776;2024-03-02T04:08:31;98421.56;;;2.00;100.00
78485;BME280;67773;50.806;8.776;2024-03-02T04:10:56;98411.31;;;1.94;100.00
78485;BME280;67773;50.806;8.776;2024-03-02T04:13:22;98415.22;;;1.83;100.00
78485;BME280;67773;50.806;8.776;2024-03-02T04:15:47;98412.31;;;1.67;100.00
78485;BME280;67773;50.806;8.776;2024-03-02T04:18:13;98417.06;;;1.81;100.00
78485;BME280;67773;50.806;8.776;2024-03-02T04:20:38;98416.41;;;1.74;100.00
78485;BME280;67773;50.806;8.776;2024-03-02T04:23:03;98420.66;;;1.78;100.00
78485;BME280;67773;50.806;8.776;2024-03-02T04:25:29;98418.03;;;1.78;100.00
78485;BME280;67773;50.806;8.776;2024-03-02T04:27:54;98425.75;;;1.81;100.00
78485;BME280;67773;50.806;8.776;2024-03-02T04:30:20;98423.94;;;1.83;100.00
78485;BME280;67773;50.806;8.776;2024-03-02T04:32:45;98425.97;;;1.75;100.00
78485;BME280;67773;50.806;8.776;2024-03-02T04:35:14;98432.16;;;1.72;100.00
78485;BME280;67773;50.806;8.776;2024-03-02T04:37:39;98431.44;;;1.69;100.00
78485;BME280;67773;50.806;8.776;2024-03-02T04:40:05;98439.22;;;1.70;100.00
78485;BME280;67773;50.806;8.776;2024-03-02T04:42:34;98429.81;;;1.65;100.00
78485;BME280;67773;50.806;8.776;2024-03-02T04:45:00;98425.50;;;1.64;100.00
78485;BME280;67773;50.806;8.776;2024-03-02T04:47:25;98428.88;;;1.67;100.00
78485;BME280;67773;50.806;8.776;2024-03-02T04:49:50;98428.44;;;1.80;100.00
78485;BME280;67773;50.806;8.776;2024-03-02T04:52:16;98417.00;;;1.82;100.00
78485;BME280;67773;50.806;8.776;2024-03-02T04:54:42;98429.97;;;1.85;100.00
78485;BME280;67773;50.806;8.776;2024-03-02T04:57:26;98428.31;;;1.83;100.00
78485;BME280;67773;50.806;8.776;2024-03-02T04:59:51;98435.31;;;1.82;100.00
78485;BME280;67773;50.806;8.776;2024-03-02T05:02:16;98435.69;;;1.71;100.00
78485;BME280;67773;50.806;8.776;2024-03-02T05:04:42;98440.28;;;1.65;100.00
78485;BME280;67773;50.806;8.776;2024-03-02T05:07:07;98442.88;;;1.65;100.00
78485;BME280;67773;50.806;8.776;2024-03-02T05:09:33;98445.72;;;1.59;100.00
78485;BME280;67773;50.806;8.776;2024-03-02T05:11:58;98437.94;;;1.57;100.00
78485;BME280;67773;50.806;8.776;2024-03-02T05:14:54;98446.84;;;1.52;100.00
78485;BME280;67773;50.806;8.776;2024-03-02T05:17:20;98455.78;;;1.44;100.00
78485;BME280;67773;50.806;8.776;2024-03-02T05:19:45;98444.41;;;1.47;100.00
78485;BME280;67773;50.806;8.776;2024-03-02T05:22:10;98451.03;;;1.56;100.00
78485;BME280;67773;50.806;8.776;2024-03-02T05:24:35;98448.50;;;1.54;100.00
78485;BME280;67773;50.806;8.776;2024-03-02T05:27:01;98449.50;;;1.50;100.00
78485;BME280;67773;50.806;8.776;2024-03-02T05:29:26;98453.03;;;1.49;100.00
78485;BME280;67773;50.806;8.776;2024-03-02T05:31:52;98460.03;;;1.49;100.00
78485;BME280;67773;50.806;8.776;2024-03-02T05:34:17;98451.09;;;1.54;100.00
78485;BME280;67773;50.806;8.776;2024-03-02T05:36:43;98456.50;;;1.50;100.00
78485;BME280;67773;50.806;8.776;2024-03-02T05:39:09;98462.41;;;1.55;100.00
78485;BME280;67773;50.806;8.776;2024-03-02T05:41:35;98452.13;;;1.50;100.00
78485;BME280;67773;50.806;8.776;2024-03-02T05:44:00;98467.44;;;1.61;100.00
78485;BME280;67773;50.806;8.776;2024-03-02T05:46:26;98467.44;;;1.61;100.00
78485;BME280;67773;50.806;8.776;2024-03-02T05:48:52;98470.84;;;1.63;100.00
78485;BME280;67773;50.806;8.776;2024-03-02T05:51:17;98461.91;;;1.70;100.00
78485;BME280;67773;50.806;8.776;2024-03-02T05:53:42;98471.97;;;1.56;100.00
78485;BME280;67773;50.806;8.776;2024-03-02T05:56:08;98467.25;;;1.67;100.00
78485;BME280;67773;50.806;8.776;2024-03-02T05:58:33;98480.63;;;1.58;100.00
78485;BME280;67773;50.806;8.776;2024-03-02T06:00:59;98476.88;;;1.65;100.00
78485;BME280;67773;50.806;8.776;2024-03-02T06:03:24;98478.94;;;1.57;100.00
78485;BME280;67773;50.806;8.776;2024-03-02T06:05:50;98485.16;;;1.53;100.00
78485;BME280;67773;50.806;8.776;2024-03-02T06:08:16;98486.72;;;1.58;100.00
78485;BME280;67773;50.806;8.776;2024-03-02T06:10:41;98491.84;;;1.61;100.00
78485;BME280;67773;50.806;8.776;2024-03-02T06:13:06;98489.91;;;1.66;100.00
78485;BME280;67773;50.806;8.776;2024-03-02T06:15:31;98490.97;;;1.61;100.00
78485;BME280;67773;50.806;8.776;2024-03-02T06:17:58;98504.00;;;1.62;100.00
78485;BME280;67773;50.806;8.776;2024-03-02T06:20:23;98495.78;;;1.73;100.00
78485;BME280;67773;50.806;8.776;2024-03-02T06:22:48;98498.63;;;1.67;100.00
78485;BME280;67773;50.806;8.776;2024-03-02T06:25:14;98497.44;;;1.76;100.00
78485;BME280;67773;50.806;8.776;2024-03-02T06:27:39;98501.13;;;1.70;100.00
78485;BME280;67773;50.806;8.776;2024-03-02T06:30:05;98507.06;;;1.75;100.00
78485;BME280;67773;50.806;8.776;2024-03-02T06:32:30;98499.38;;;1.70;100.00
78485;BME280;67773;50.806;8.776;2024-03-02T06:34:56;98505.22;;;1.79;100.00
78485;BME280;67773;50.806;8.776;2024-03-02T06:37:21;98497.31;;;1.80;100.00
78485;BME280;67773;50.806;8.776;2024-03-02T06:39:46;98510.97;;;1.88;100.00
78485;BME280;67773;50.806;8.776;2024-03-02T06:42:12;98511.06;;;1.85;100.00
78485;BME280;67773;50.806;8.776;2024-03-02T06:44:37;98505.69;;;1.90;100.00
78485;BME280;67773;50.806;8.776;2024-03-02T06:47:03;98505.63;;;1.91;100.00
78485;BME280;67773;50.806;8.776;2024-03-02T06:49:29;98512.56;;;1.92;100.00
78485;BME280;67773;50.806;8.776;2024-03-02T06:51:54;98512.38;;;1.98;100.00
78485;BME280;67773;50.806;8.776;2024-03-02T06:54:20;98515.34;;;2.13;100.00
78485;BME280;67773;50.806;8.776;2024-03-02T06:56:46;98514.09;;;2.23;100.00
78485;BME280;67773;50.806;8.776;2024-03-02T06:59:11;98510.63;;;2.22;100.00
78485;BME280;67773;50.806;8.776;2024-03-02T07:01:37;98508.09;;;2.21;100.00
78485;BME280;67773;50.806;8.776;2024-03-02T07:04:02;98518.44;;;2.24;100.00
78485;BME280;67773;50.806;8.776;2024-03-02T07:06:27;98523.94;;;2.16;100.00
78485;BME280;67773;50.806;8.776;2024-03-02T07:08:53;98530.81;;;2.19;100.00
78485;BME280;67773;50.806;8.776;2024-03-02T07:11:18;98526.28;;;2.24;100.00
78485;BME280;67773;50.806;8.776;2024-03-02T07:13:44;98528.00;;;2.25;100.00
78485;BME280;67773;50.806;8.776;2024-03-02T07:16:09;98527.94;;;2.26;100.00
78485;BME280;67773;50.806;8.776;2024-03-02T07:18:49;98529.03;;;2.21;100.00
78485;BME280;67773;50.806;8.776;2024-03-02T07:21:17;98526.47;;;2.19;100.00
78485;BME280;67773;50.806;8.776;2024-03-02T07:23:42;98529.81;;;2.23;100.00
78485;BME280;67773;50.806;8.776;2024-03-02T07:26:08;98540.06;;;2.29;100.00
78485;BME280;67773;50.806;8.776;2024-03-02T07:28:33;98532.50;;;2.45;100.00
78485;BME280;67773;50.806;8.776;2024-03-02T07:31:03;98530.22;;;2.59;100.00
78485;BME280;67773;50.806;8.776;2024-03-02T07:33:29;98531.50;;;2.72;100.00
78485;BME280;67773;50.806;8.776;2024-03-02T07:35:55;98536.22;;;2.86;100.00
78485;BME280;67773;50.806;8.776;2024-03-02T07:38:21;98536.88;;;2.91;100.00
78485;BME280;67773;50.806;8.776;2024-03-02T07:40:47;98535.44;;;3.06;100.00
78485;BME280;67773;50.806;8.776;2024-03-02T07:43:16;98529.00;;;3.14;100.00
78485;BME280;67773;50.806;8.776;2024-03-02T07:45:42;98525.19;;;3.22;100.00
78485;BME280;67773;50.806;8.776;2024-03-02T07:48:07;98525.81;;;3.28;100.00
78485;BME280;67773;50.806;8.776;2024-03-02T07:50:32;98530.19;;;3.50;100.00
78485;BME280;67773;50.806;8.776;2024-03-02T07:53:01;98536.66;;;3.41;100.00
78485;BME280;67773;50.806;8.776;2024-03-02T07:55:26;98536.56;;;3.44;100.00
78485;BME280;67773;50.806;8.776;2024-03-02T07:57:51;98536.38;;;3.48;100.00
78485;BME280;67773;50.806;8.776;2024-03-02T08:00:17;98538.84;;;3.52;100.00
78485;BME280;67773;50.806;8.776;2024-03-02T08:02:42;98542.94;;;3.59;100.00
78485;BME280;67773;50.806;8.776;2024-03-02T08:05:08;98551.03;;;3.74;100.00
78485;BME280;67773;50.806;8.776;2024-03-02T08:07:34;98547.25;;;3.82;100.00
78485;BME280;67773;50.806;8.776;2024-03-02T08:09:59;98547.25;;;4.02;100.00
78485;BME280;67773;50.806;8.776;2024-03-02T08:12:25;98548.56;;;4.12;100.00
78485;BME280;67773;50.806;8.776;2024-03-02T08:14:50;98544.25;;;4.11;100.00
78485;BME280;67773;50.806;8.776;2024-03-02T08:17:15;98546.19;;;4.26;100.00
78485;BME280;67773;50.806;8.776;2024-03-02T08:19:41;98545.31;;;4.46;100.00
78485;BME280;67773;50.806;8.776;2024-03-02T08:22:06;98550.94;;;4.57;100.00
78485;BME280;67773;50.806;8.776;2024-03-02T08:24:32;98550.78;;;4.81;100.00
78485;BME280;67773;50.806;8.776;2024-03-02T08:26:59;98556.47;;;5.09;100.00
78485;BME280;67773;50.806;8.776;2024-03-02T08:29:24;98552.53;;;5.37;100.00
78485;BME280;67773;50.806;8.776;2024-03-02T08:31:50;98547.56;;;5.67;100.00
78485;BME280;67773;50.806;8.776;2024-03-02T08:34:15;98551.38;;;5.97;100.00
78485;BME280;67773;50.806;8.776;2024-03-02T08:36:40;98543.97;;;6.39;100.00
78485;BME280;67773;50.806;8.776;2024-03-02T08:39:08;98543.97;;;6.72;100.00
78485;BME280;67773;50.806;8.776;2024-03-02T08:41:46;98546.03;;;6.82;100.00
78485;BME280;67773;50.806;8.776;2024-03-02T08:44:13;98554.22;;;6.93;100.00
78485;BME280;67773;50.806;8.776;2024-03-02T08:46:39;98547.38;;;6.74;100.00
78485;BME280;67773;50.806;8.776;2024-03-02T08:49:04;98540.97;;;6.62;100.00
78485;BME280;67773;50.806;8.776;2024-03-02T08:51:30;98547.41;;;6.56;100.00
78485;BME280;67773;50.806;8.776;2024-03-02T08:53:56;98553.97;;;6.49;100.00
78485;BME280;67773;50.806;8.776;2024-03-02T08:56:23;98562.31;;;6.57;100.00
78485;BME280;67773;50.806;8.776;2024-03-02T08:58:49;98555.19;;;6.59;100.00
78485;BME280;67773;50.806;8.776;2024-03-02T09:01:15;98552.25;;;6.97;100.00
78485;BME280;67773;50.806;8.776;2024-03-02T09:03:42;98561.72;;;7.48;100.00
78485;BME280;67773;50.806;8.776;2024-03-02T09:06:10;98557.63;;;7.59;100.00
78485;BME280;67773;50.806;8.776;2024-03-02T09:08:35;98553.72;;;7.81;100.00
78485;BME280;67773;50.806;8.776;2024-03-02T09:11:02;98563.69;;;7.76;100.00
78485;BME280;67773;50.806;8.776;2024-03-02T09:13:27;98564.31;;;7.96;100.00
78485;BME280;67773;50.806;8.776;2024-03-02T09:15:53;98554.22;;;8.32;100.00
78485;BME280;67773;50.806;8.776;2024-03-02T09:18:18;98567.22;;;8.37;100.00
78485;BME280;67773;50.806;8.776;2024-03-02T09:20:43;98561.84;;;8.53;100.00
78485;BME280;67773;50.806;8.776;2024-03-02T09:23:09;98561.28;;;8.48;100.00
78485;BME280;67773;50.806;8.776;2024-03-02T09:25:34;98555.41;;;8.43;100.00
78485;BME280;67773;50.806;8.776;2024-03-02T09:28:00;98554.50;;;8.58;100.00
78485;BME280;67773;50.806;8.776;2024-03-02T09:30:25;98549.00;;;8.75;100.00
78485;BME280;67773;50.806;8.776;2024-03-02T09:32:50;98555.06;;;8.77;100.00
78485;BME280;67773;50.806;8.776;2024-03-02T09:35:16;98552.97;;;8.82;100.00
78485;BME280;67773;50.806;8.776;2024-03-02T09:37:41;98541.63;;;8.94;100.00
78485;BME280;67773;50.806;8.776;2024-03-02T09:40:07;98542.03;;;8.88;100.00
78485;BME280;67773;50.806;8.776;2024-03-02T09:42:32;98535.03;;;8.87;100.00
78485;BME280;67773;50.806;8.776;2024-03-02T09:44:58;98535.44;;;9.22;100.00
78485;BME280;67773;50.806;8.776;2024-03-02T09:47:23;98531.22;;;9.74;100.00
78485;BME280;67773;50.806;8.776;2024-03-02T09:49:49;98533.16;;;10.11;100.00
78485;BME280;67773;50.806;8.776;2024-03-02T09:52:14;98529.91;;;10.97;100.00
78485;BME280;67773;50.806;8.776;2024-03-02T09:54:41;98529.66;;;11.25;100.00
78485;BME280;67773;50.806;8.776;2024-03-02T09:57:06;98525.19;;;11.50;100.00
78485;BME280;67773;50.806;8.776;2024-03-02T09:59:32;98525.44;;;11.71;100.00
78485;BME280;67773;50.806;8.776;2024-03-02T10:02:07;98521.75;;;11.37;100.00
78485;BME280;67773;50.806;8.776;2024-03-02T10:04:33;98514.16;;;11.43;100.00
78485;BME280;67773;50.806;8.776;2024-03-02T10:07:19;98522.97;;;11.44;100.00
78485;BME280;67773;50.806;8.776;2024-03-02T10:09:45;98518.25;;;11.23;100.00
78485;BME280;67773;50.806;8.776;2024-03-02T10:12:15;98516.63;;;11.70;100.00
78485;BME280;67773;50.806;8.776;2024-03-02T10:14:41;98518.53;;;11.68;100.00
78485;BME280;67773;50.806;8.776;2024-03-02T10:17:11;98515.22;;;12.01;100.00
78485;BME280;67773;50.806;8.776;2024-03-02T10:19:38;98513.47;;;12.35;99.61
78485;BME280;67773;50.806;8.776;2024-03-02T10:22:05;98511.50;;;12.15;100.00
78485;BME280;67773;50.806;8.776;2024-03-02T10:24:37;98511.69;;;12.47;100.00
78485;BME280;67773;50.806;8.776;2024-03-02T10:27:16;98505.03;;;12.41;100.00
78485;BME280;67773;50.806;8.776;2024-03-02T10:29:42;98514.25;;;12.60;100.00
78485;BME280;67773;50.806;8.776;2024-03-02T10:32:11;98511.28;;;12.29;98.71
78485;BME280;67773;50.806;8.776;2024-03-02T10:34:37;98522.41;;;11.88;100.00
78485;BME280;67773;50.806;8.776;2024-03-02T10:37:03;98513.59;;;11.75;100.00
78485;BME280;67773;50.806;8.776;2024-03-02T10:39:28;98513.91;;;12.18;100.00
78485;BME280;67773;50.806;8.776;2024-03-02T10:41:55;98514.47;;;12.46;91.89
78485;BME280;67773;50.806;8.776;2024-03-02T10:44:22;98512.47;;;12.94;88.19
78485;BME280;67773;50.806;8.776;2024-03-02T10:46:49;98507.22;;;12.59;86.97
78485;BME280;67773;50.806;8.776;2024-03-02T10:49:16;98508.34;;;12.10;86.42
78485;BME280;67773;50.806;8.776;2024-03-02T10:51:42;98515.94;;;12.03;89.70
78485;BME280;67773;50.806;8.776;2024-03-02T10:54:07;98511.00;;;12.10;88.26
78485;BME280;67773;50.806;8.776;2024-03-02T10:56:39;98509.84;;;11.90;87.67
78485;BME280;67773;50.806;8.776;2024-03-02T10:59:06;98520.16;;;12.06;88.29
78485;BME280;67773;50.806;8.776;2024-03-02T11:01:39;98516.19;;;12.58;86.20
78485;BME280;67773;50.806;8.776;2024-03-02T11:04:08;98503.72;;;13.14;83.26
78485;BME280;67773;50.806;8.776;2024-03-02T11:06:35;98501.38;;;13.66;78.31
78485;BME280;67773;50.806;8.776;2024-03-02T11:09:07;98494.59;;;13.50;77.71
78485;BME280;67773;50.806;8.776;2024-03-02T11:11:39;98502.31;;;13.65;77.45
78485;BME280;67773;50.806;8.776;2024-03-02T11:14:07;98494.66;;;13.28;75.31
78485;BME280;67773;50.806;8.776;2024-03-02T11:16:37;98492.72;;;13.08;75.18
78485;BME280;67773;50.806;8.776;2024-03-02T11:19:05;98492.22;;;13.14;75.34
78485;BME280;67773;50.806;8.776;2024-03-02T11:21:33;98501.09;;;13.25;75.50
78485;BME280;67773;50.806;8.776;2024-03-02T11:23:58;98496.81;;;13.23;74.81
78485;BME280;67773;50.806;8.776;2024-03-02T11:26:24;98493.09;;;13.25;73.99
78485;BME280;67773;50.806;8.776;2024-03-02T11:28:49;98481.94;;;13.20;72.81
78485;BME280;67773;50.806;8.776;2024-03-02T11:31:15;98488.59;;;13.37;73.79
78485;BME280;67773;50.806;8.776;2024-03-02T11:33:40;98480.03;;;13.66;71.31
78485;BME280;67773;50.806;8.776;2024-03-02T11:36:09;98478.34;;;13.53;67.44
78485;BME280;67773;50.806;8.776;2024-03-02T11:38:35;98482.69;;;13.98;67.78
78485;BME280;67773;50.806;8.776;2024-03-02T11:41:02;98478.06;;;14.00;67.50
78485;BME280;67773;50.806;8.776;2024-03-02T11:43:29;98468.59;;;14.49;65.62
78485;BME280;67773;50.806;8.776;2024-03-02T11:45:58;98460.28;;;14.10;64.01
78485;BME280;67773;50.806;8.776;2024-03-02T11:48:25;98472.53;;;14.12;65.34
78485;BME280;67773;50.806;8.776;2024-03-02T11:50:50;98466.34;;;14.12;64.90
78485;BME280;67773;50.806;8.776;2024-03-02T11:53:16;98478.00;;;14.32;64.28
78485;BME280;67773;50.806;8.776;2024-03-02T11:55:42;98473.72;;;14.20;62.94
78485;BME280;67773;50.806;8.776;2024-03-02T11:58:12;98462.69;;;14.34;63.94
78485;BME280;67773;50.806;8.776;2024-03-02T12:00:38;98464.09;;;14.38;63.50
78485;BME280;67773;50.806;8.776;2024-03-02T12:03:05;98465.94;;;14.37;63.64
78485;BME280;67773;50.806;8.776;2024-03-02T12:05:32;98467.19;;;14.33;65.30
78485;BME280;67773;50.806;8.776;2024-03-02T12:07:59;98453.41;;;14.28;64.27
78485;BME280;67773;50.806;8.776;2024-03-02T12:10:28;98454.22;;;14.70;64.29
78485;BME280;67773;50.806;8.776;2024-03-02T12:13:01;98452.09;;;14.23;63.27
78485;BME280;67773;50.806;8.776;2024-03-02T12:15:28;98453.97;;;14.53;63.55
78485;BME280;67773;50.806;8.776;2024-03-02T12:17:55;98444.50;;;14.69;63.96
78485;BME280;67773;50.806;8.776;2024-03-02T12:20:21;98436.59;;;14.98;63.03
78485;BME280;67773;50.806;8.776;2024-03-02T12:22:46;98437.91;;;15.14;61.98
78485;BME280;67773;50.806;8.776;2024-03-02T12:25:12;98443.66;;;15.19;60.60
78485;BME280;67773;50.806;8.776;2024-03-02T12:27:39;98437.13;;;14.31;63.83
78485;BME280;67773;50.806;8.776;2024-03-02T12:30:05;98434.16;;;14.55;63.38
78485;BME280;67773;50.806;8.776;2024-03-02T12:32:33;98443.34;;;14.62;62.88
78485;BME280;67773;50.806;8.776;2024-03-02T12:34:59;98431.41;;;14.66;62.78
78485;BME280;67773;50.806;8.776;2024-03-02T12:37:24;98435.56;;;14.80;62.75
78485;BME280;67773;50.806;8.776;2024-03-02T12:39:49;98431.16;;;14.69;62.44
78485;BME280;67773;50.806;8.776;2024-03-02T12:42:15;98437.25;;;14.51;61.27
78485;BME280;67773;50.806;8.776;2024-03-02T12:44:40;98424.78;;;14.91;61.98
78485;BME280;67773;50.806;8.776;2024-03-02T12:47:06;98421.72;;;15.15;61.33
78485;BME280;67773;50.806;8.776;2024-03-02T12:49:32;98420.50;;;15.39;58.82
78485;BME280;67773;50.806;8.776;2024-03-02T12:51:57;98423.81;;;15.02;60.84
78485;BME280;67773;50.806;8.776;2024-03-02T12:54:23;98418.53;;;14.81;58.97
78485;BME280;67773;50.806;8.776;2024-03-02T12:56:50;98416.88;;;14.80;59.64
78485;BME280;67773;50.806;8.776;2024-03-02T12:59:20;98412.44;;;15.19;59.44